createdAt,value
2019-02-10T00:01:20.995Z,49.87
2019-02-10T00:03:49.734Z,43.43
2019-02-10T00:06:24.816Z,45.27
2019-02-10T00:08:50.113Z,42.87
2019-02-10T00:11:18.886Z,42.90
2019-02-10T00:13:47.804Z,44.30
2019-02-10T00:16:17.440Z,43.47
2019-02-10T00:18:46.191Z,45.17
2019-02-10T00:21:15.191Z,42.93
2019-02-10T00:23:43.931Z,43.00
2019-02-10T00:26:12.670Z,41.63
2019-02-10T00:28:41.566Z,39.83
2019-02-10T00:31:10.296Z,38.07
2019-02-10T00:33:39.035Z,37.57
2019-02-10T00:36:07.832Z,37.33
2019-02-10T00:38:36.572Z,35.07
2019-02-10T00:41:05.315Z,35.10
2019-02-10T00:43:34.266Z,34.47
2019-02-10T00:46:03.025Z,31.57
2019-02-10T00:48:31.766Z,29.53
2019-02-10T00:51:00.665Z,27.43
2019-02-10T00:53:29.396Z,28.20
2019-02-10T00:55:58.151Z,27.93
2019-02-10T00:58:27.277Z,28.80
2019-02-10T01:00:56.019Z,27.93
2019-02-10T01:03:24.758Z,28.20
2019-02-10T01:05:54.095Z,29.13
2019-02-10T01:08:22.930Z,32.00
2019-02-10T01:10:51.673Z,41.13
2019-02-10T01:13:20.474Z,39.37
2019-02-10T01:15:49.208Z,41.30
2019-02-10T01:18:17.951Z,47.00
2019-02-10T01:20:47.123Z,47.03
2019-02-10T01:23:15.862Z,50.30
2019-02-10T01:25:44.607Z,42.83
2019-02-10T01:28:13.421Z,39.70
2019-02-10T01:30:42.959Z,34.53
2019-02-10T01:33:11.693Z,35.03
2019-02-10T01:35:40.586Z,36.57
2019-02-10T01:38:09.315Z,37.70
2019-02-10T01:40:38.059Z,32.87
2019-02-10T01:43:07.185Z,31.30
2019-02-10T01:45:35.933Z,31.43
2019-02-10T01:48:04.678Z,32.20
2019-02-10T01:50:33.600Z,33.17
2019-02-10T01:53:03.138Z,34.83
2019-02-10T01:55:33.031Z,34.43
2019-02-10T01:58:01.937Z,33.73
2019-02-10T02:00:30.773Z,32.17
2019-02-10T02:02:59.517Z,32.40
2019-02-10T02:05:28.682Z,33.17
2019-02-10T02:07:57.516Z,33.43
2019-02-10T02:10:27.855Z,34.07
2019-02-10T02:12:56.674Z,36.03
2019-02-10T02:15:25.408Z,38.70
2019-02-10T02:17:54.144Z,53.73
2019-02-10T02:20:22.990Z,69.63
2019-02-10T02:22:51.829Z,62.03
2019-02-10T02:25:20.722Z,63.27
2019-02-10T02:27:49.719Z,64.83
2019-02-10T02:30:18.589Z,63.00
2019-02-10T02:32:47.355Z,57.43
2019-02-10T02:35:16.136Z,57.93
2019-02-10T02:37:44.888Z,57.00
2019-02-10T02:40:13.624Z,62.47
2019-02-10T02:42:42.488Z,60.80
2019-02-10T02:45:12.328Z,54.43
2019-02-10T02:47:41.178Z,51.37
2019-02-10T02:50:11.585Z,41.83
2019-02-10T02:52:40.434Z,39.80
2019-02-10T02:55:10.104Z,43.30
2019-02-10T02:57:39.341Z,44.13
2019-02-10T03:00:10.385Z,48.93
2019-02-10T03:02:39.103Z,43.63
2019-02-10T03:05:11.168Z,40.13
2019-02-10T03:07:39.916Z,40.70
2019-02-10T03:10:09.464Z,35.90
2019-02-10T03:12:38.247Z,34.30
2019-02-10T03:15:08.695Z,34.47
2019-02-10T03:17:37.528Z,30.13
2019-02-10T03:20:08.199Z,30.90
2019-02-10T03:22:36.936Z,31.07
2019-02-10T03:25:07.738Z,29.53
2019-02-10T03:27:36.515Z,31.50
2019-02-10T03:30:07.986Z,31.10
2019-02-10T03:32:36.720Z,31.37
2019-02-10T03:35:07.899Z,30.77
2019-02-10T03:37:36.642Z,29.47
2019-02-10T03:40:08.084Z,29.83
2019-02-10T03:42:36.985Z,29.63
2019-02-10T03:45:07.729Z,29.07
2019-02-10T03:47:36.473Z,28.00
2019-02-10T03:50:07.756Z,27.93
2019-02-10T03:52:36.485Z,29.60
2019-02-10T03:55:06.715Z,29.83
2019-02-10T03:57:36.498Z,29.00
2019-02-10T04:00:10.749Z,29.37
2019-02-10T04:02:39.480Z,30.23
2019-02-10T04:05:08.369Z,27.97
2019-02-10T04:07:37.096Z,27.77
2019-02-10T04:10:08.983Z,25.87
2019-02-10T04:12:39.896Z,24.97
2019-02-10T04:15:09.425Z,25.13
2019-02-10T04:17:38.151Z,25.67
2019-02-10T04:20:08.555Z,29.40
2019-02-10T04:22:37.292Z,24.20
2019-02-10T04:25:06.726Z,25.77
2019-02-10T04:27:35.514Z,24.27
2019-02-10T04:30:09.390Z,22.53
2019-02-10T04:32:38.462Z,23.40
2019-02-10T04:35:07.250Z,23.13
2019-02-10T04:37:45.034Z,23.10
2019-02-10T04:40:07.546Z,23.57
2019-02-10T04:42:36.320Z,24.43
2019-02-10T04:45:05.259Z,25.27
2019-02-10T04:47:34.292Z,23.87
2019-02-10T04:50:04.413Z,23.83
2019-02-10T04:52:33.160Z,24.57
2019-02-10T04:55:02.062Z,25.10
2019-02-10T04:57:30.966Z,26.17
2019-02-10T04:59:59.704Z,25.50
2019-02-10T05:02:28.445Z,24.90
2019-02-10T05:04:57.352Z,27.00
2019-02-10T05:07:26.141Z,26.70
2019-02-10T05:09:54.888Z,26.37
2019-02-10T05:12:23.713Z,30.90
2019-02-10T05:14:52.403Z,29.67
2019-02-10T05:17:21.155Z,29.43
2019-02-10T05:19:50.021Z,32.33
2019-02-10T05:22:18.759Z,34.83
2019-02-10T05:24:47.491Z,38.57
2019-02-10T05:27:16.384Z,52.33
2019-02-10T05:29:45.179Z,53.23
2019-02-10T05:32:13.927Z,54.43
2019-02-10T05:34:42.840Z,50.37
2019-02-10T05:37:11.582Z,59.77
2019-02-10T05:39:40.316Z,61.63
2019-02-10T05:42:09.094Z,50.47
2019-02-10T05:44:37.843Z,51.30
2019-02-10T05:47:06.578Z,49.20
2019-02-10T05:49:35.476Z,42.57
2019-02-10T05:52:04.256Z,35.70
2019-02-10T05:54:32.963Z,32.90
2019-02-10T05:57:02.115Z,31.93
2019-02-10T05:59:30.943Z,31.73
2019-02-10T06:02:06.222Z,29.93
2019-02-10T06:04:43.912Z,29.83
2019-02-10T06:07:16.634Z,30.73
2019-02-10T06:09:57.948Z,31.70
2019-02-10T06:12:22.361Z,32.27
2019-02-10T06:14:51.098Z,31.57
2019-02-10T06:17:19.856Z,33.97
2019-02-10T06:19:48.727Z,40.13
2019-02-10T06:22:17.522Z,43.93
2019-02-10T06:24:46.269Z,50.17
2019-02-10T06:27:15.431Z,44.80
2019-02-10T06:29:44.232Z,52.07
2019-02-10T06:32:16.027Z,50.00
2019-02-10T06:34:47.804Z,44.90
2019-02-10T06:37:16.582Z,39.80
2019-02-10T06:39:45.325Z,31.87
2019-02-10T06:42:18.054Z,25.70
2019-02-10T06:44:47.011Z,25.00
2019-02-10T06:47:15.745Z,25.77
2019-02-10T06:49:44.611Z,27.17
2019-02-10T06:52:13.375Z,27.30
2019-02-10T06:54:46.410Z,27.27
2019-02-10T06:57:15.268Z,26.60
2019-02-10T06:59:53.243Z,26.77
2019-02-10T07:02:30.037Z,25.77
2019-02-10T07:04:58.777Z,25.37
2019-02-10T07:07:27.602Z,25.43
2019-02-10T07:09:56.784Z,24.10
2019-02-10T07:12:50.318Z,26.40
2019-02-10T07:15:55.580Z,25.60
2019-02-10T07:19:00.199Z,26.03
2019-02-10T07:21:32.491Z,24.57
2019-02-10T07:24:04.143Z,26.73
2019-02-10T07:26:58.102Z,26.73
2019-02-10T07:29:32.639Z,26.53
2019-02-10T07:32:01.775Z,27.67
2019-02-10T07:34:50.303Z,27.87
2019-02-10T07:37:24.532Z,28.30
2019-02-10T07:40:02.576Z,27.77
2019-02-10T07:42:50.668Z,28.43
2019-02-10T07:45:40.720Z,30.73
2019-02-10T07:48:29.168Z,28.87
2019-02-10T07:51:09.761Z,29.73
2019-02-10T07:53:53.389Z,28.70
2019-02-10T07:56:44.708Z,28.27
2019-02-10T07:59:37.269Z,27.50
2019-02-10T08:02:28.837Z,30.00
2019-02-10T08:05:18.568Z,29.30
2019-02-10T08:08:07.187Z,28.53
2019-02-10T08:10:41.717Z,30.70
2019-02-10T08:13:24.043Z,30.57
2019-02-10T08:16:08.779Z,31.00
2019-02-10T08:18:46.320Z,30.67
2019-02-10T08:21:33.081Z,32.87
2019-02-10T08:24:21.120Z,31.70
2019-02-10T08:27:04.518Z,31.10
2019-02-10T08:29:57.345Z,29.40
2019-02-10T08:32:34.799Z,31.50
2019-02-10T08:35:24.655Z,32.87
2019-02-10T08:38:01.679Z,29.97
2019-02-10T08:41:02.021Z,31.07
2019-02-10T08:44:02.415Z,30.10
2019-02-10T08:46:37.037Z,30.93
2019-02-10T08:49:20.304Z,33.17
2019-02-10T08:51:55.049Z,32.07
2019-02-10T08:54:25.246Z,35.20
2019-02-10T08:56:53.982Z,34.90
2019-02-10T08:59:22.767Z,38.10
2019-02-10T09:01:54.276Z,35.23
2019-02-10T09:04:23.127Z,37.50
2019-02-10T09:06:51.990Z,38.67
2019-02-10T09:09:20.718Z,37.50
2019-02-10T09:11:49.449Z,38.03
2019-02-10T09:14:18.212Z,38.00
2019-02-10T09:16:46.941Z,38.47
2019-02-10T09:19:15.688Z,39.80
2019-02-10T09:21:44.430Z,38.40
2019-02-10T09:24:13.174Z,43.20
2019-02-10T09:26:41.901Z,42.93
2019-02-10T09:29:10.668Z,42.03
2019-02-10T09:31:39.414Z,44.63
2019-02-10T09:34:08.132Z,43.73
2019-02-10T09:36:37.246Z,45.87
2019-02-10T09:39:10.919Z,43.63
2019-02-10T09:41:37.118Z,44.17
2019-02-10T09:44:06.014Z,43.43
2019-02-10T09:46:34.739Z,42.43
2019-02-10T09:49:03.466Z,43.93
2019-02-10T09:51:32.369Z,40.97
2019-02-10T09:54:01.092Z,42.37
2019-02-10T09:56:29.819Z,42.50
2019-02-10T09:58:58.636Z,42.03
2019-02-10T10:01:27.365Z,40.67
2019-02-10T10:03:56.092Z,41.80
2019-02-10T10:06:25.128Z,39.43
2019-02-10T10:08:53.855Z,42.83
2019-02-10T10:11:22.591Z,44.00
2019-02-10T10:13:51.484Z,41.77
2019-02-10T10:16:20.217Z,40.90
2019-02-10T10:18:48.944Z,40.50
2019-02-10T10:21:17.812Z,39.00
2019-02-10T10:23:46.533Z,42.27
2019-02-10T10:26:15.263Z,40.77
2019-02-10T10:28:44.042Z,39.13
2019-02-10T10:31:12.769Z,38.00
2019-02-10T10:33:41.505Z,40.33
2019-02-10T10:36:10.286Z,36.83
2019-02-10T10:38:39.017Z,33.90
2019-02-10T10:41:07.744Z,35.40
2019-02-10T10:43:36.518Z,31.80
2019-02-10T10:46:05.246Z,31.53
2019-02-10T10:48:33.976Z,34.67
2019-02-10T10:51:02.870Z,33.77
2019-02-10T10:53:31.607Z,33.20
2019-02-10T10:56:00.345Z,32.00
2019-02-10T10:58:29.229Z,29.57
2019-02-10T11:00:57.966Z,29.70
2019-02-10T11:03:26.695Z,27.90
2019-02-10T11:05:55.549Z,27.80
2019-02-10T11:08:24.731Z,29.50
2019-02-10T11:10:53.464Z,29.77
2019-02-10T11:13:22.359Z,28.20
2019-02-10T11:15:51.091Z,30.07
2019-02-10T11:18:19.820Z,23.17
2019-02-10T11:20:48.699Z,25.47
2019-02-10T11:23:17.441Z,54.90
2019-02-10T11:25:46.166Z,23.17
2019-02-10T11:28:15.384Z,21.87
2019-02-10T11:30:44.119Z,27.20
2019-02-10T11:33:12.850Z,26.30
2019-02-10T11:35:41.724Z,26.33
2019-02-10T11:38:10.459Z,22.93
2019-02-10T11:40:39.188Z,22.87
2019-02-10T11:43:07.964Z,25.33
2019-02-10T11:45:36.702Z,25.37
2019-02-10T11:48:05.434Z,23.57
2019-02-10T11:50:34.231Z,24.00
2019-02-10T11:53:02.977Z,24.17
2019-02-10T11:55:31.700Z,24.40
2019-02-10T11:58:00.478Z,23.27
2019-02-10T12:00:29.208Z,24.00
2019-02-10T12:02:57.943Z,25.90
2019-02-10T12:05:27.200Z,25.27
2019-02-10T12:07:55.924Z,25.17
2019-02-10T12:10:24.798Z,23.83
2019-02-10T12:12:53.617Z,23.40
2019-02-10T12:15:22.343Z,23.43
2019-02-10T12:17:51.072Z,23.40
2019-02-10T12:20:19.943Z,24.13
2019-02-10T12:22:50.345Z,23.60
2019-02-10T12:25:19.315Z,22.13
2019-02-10T12:27:48.197Z,23.10
2019-02-10T12:30:17.615Z,24.10
2019-02-10T12:32:46.346Z,22.53
2019-02-10T12:35:15.229Z,23.30
2019-02-10T12:37:43.962Z,23.03
2019-02-10T12:40:13.295Z,23.47
2019-02-10T12:42:42.147Z,22.70
2019-02-10T12:45:12.783Z,21.77
2019-02-10T12:47:41.513Z,21.47
2019-02-10T12:50:14.196Z,21.93
2019-02-10T12:52:42.922Z,20.97
2019-02-10T12:55:12.560Z,21.00
2019-02-10T12:57:41.463Z,21.47
2019-02-10T13:00:15.968Z,21.73
2019-02-10T13:02:44.768Z,22.43
2019-02-10T13:05:13.667Z,21.97
2019-02-10T13:07:42.404Z,21.23
2019-02-10T13:10:13.142Z,22.43
2019-02-10T13:12:42.055Z,21.40
2019-02-10T13:15:11.777Z,21.40
2019-02-10T13:17:40.522Z,20.90
2019-02-10T13:20:11.407Z,21.10
2019-02-10T13:22:40.242Z,21.03
2019-02-10T13:25:10.669Z,20.33
2019-02-10T13:27:39.553Z,20.20
2019-02-10T13:30:16.907Z,20.73
2019-02-10T13:32:45.701Z,18.80
2019-02-10T13:35:14.437Z,20.57
2019-02-10T13:37:43.172Z,19.70
2019-02-10T13:40:20.842Z,20.80
2019-02-10T13:42:49.576Z,18.70
2019-02-10T13:45:18.350Z,17.90
2019-02-10T13:47:47.135Z,18.60
2019-02-10T13:50:18.508Z,17.27
2019-02-10T13:52:47.262Z,18.33
2019-02-10T13:55:17.043Z,18.23
2019-02-10T13:57:45.871Z,18.13
2019-02-10T14:00:23.331Z,17.80
2019-02-10T14:02:52.061Z,17.53
2019-02-10T14:05:20.893Z,18.37
2019-02-10T14:07:50.940Z,19.30
2019-02-10T14:10:25.568Z,18.20
2019-02-10T14:12:50.540Z,18.30
2019-02-10T14:15:20.481Z,17.97
2019-02-10T14:17:49.206Z,18.70
2019-02-10T14:20:21.032Z,18.83
2019-02-10T14:22:49.833Z,18.80
2019-02-10T14:25:18.553Z,19.53
2019-02-10T14:27:47.286Z,21.20
2019-02-10T14:30:17.884Z,22.80
2019-02-10T14:32:46.609Z,20.70
2019-02-10T14:35:15.550Z,21.97
2019-02-10T14:37:44.739Z,20.83
2019-02-10T14:40:13.564Z,20.93
2019-02-10T14:42:42.302Z,20.30
2019-02-10T14:45:15.785Z,21.57
2019-02-10T14:47:44.622Z,21.40
2019-02-10T14:50:17.775Z,21.90
2019-02-10T14:52:46.972Z,20.60
2019-02-10T14:55:15.712Z,21.30
2019-02-10T14:57:44.442Z,20.90
2019-02-10T15:00:17.662Z,20.83
2019-02-10T15:02:46.404Z,21.17
2019-02-10T15:05:15.248Z,21.30
2019-02-10T15:07:44.020Z,19.97
2019-02-10T15:10:17.648Z,19.27
2019-02-10T15:12:46.378Z,20.63
2019-02-10T15:15:15.182Z,20.23
2019-02-10T15:17:44.043Z,20.63
2019-02-10T15:20:13.589Z,24.70
2019-02-10T15:22:42.434Z,37.37
2019-02-10T15:25:12.652Z,34.80
2019-02-10T15:27:41.585Z,31.83
2019-02-10T15:30:12.723Z,116.83
2019-02-10T15:32:41.459Z,140.87
2019-02-10T15:35:10.589Z,152.97
2019-02-10T15:37:39.750Z,164.57
2019-02-10T15:40:10.555Z,116.03
2019-02-10T15:42:39.283Z,96.27
2019-02-10T15:45:13.247Z,97.93
2019-02-10T15:47:41.988Z,356.23
2019-02-10T15:50:14.439Z,514.70
2019-02-10T15:52:43.757Z,224.33
2019-02-10T15:55:13.474Z,307.90
2019-02-10T15:57:42.207Z,342.07
2019-02-10T16:00:19.819Z,287.13
2019-02-10T16:02:48.622Z,159.03
2019-02-10T16:05:17.375Z,102.77
2019-02-10T16:07:46.280Z,70.27
2019-02-10T16:10:15.008Z,77.10
2019-02-10T16:12:43.734Z,90.47
2019-02-10T16:15:13.108Z,106.97
2019-02-10T16:17:41.837Z,147.37
2019-02-10T16:20:13.517Z,158.10
2019-02-10T16:22:42.343Z,170.23
2019-02-10T16:25:11.081Z,221.13
2019-02-10T16:27:39.823Z,281.93
2019-02-10T16:30:18.844Z,354.17
2019-02-10T16:32:49.928Z,300.60
2019-02-10T16:35:18.041Z,300.67
2019-02-10T16:37:47.016Z,286.80
2019-02-10T16:40:19.732Z,332.47
2019-02-10T16:42:48.503Z,289.87
2019-02-10T16:45:17.369Z,258.77
2019-02-10T16:47:46.089Z,203.63
2019-02-10T16:50:16.238Z,215.53
2019-02-10T16:52:45.139Z,195.83
2019-02-10T16:55:18.915Z,185.83
2019-02-10T16:57:47.660Z,182.00
2019-02-10T17:00:17.304Z,187.80
2019-02-10T17:02:46.036Z,204.20
2019-02-10T17:05:14.777Z,209.80
2019-02-10T17:07:43.804Z,212.30
2019-02-10T17:10:17.230Z,221.23
2019-02-10T17:12:49.426Z,236.47
2019-02-10T17:15:18.158Z,217.30
2019-02-10T17:17:46.903Z,196.90
2019-02-10T17:20:17.327Z,191.83
2019-02-10T17:22:46.232Z,211.53
2019-02-10T17:25:21.083Z,248.60
2019-02-10T17:27:49.955Z,293.57
2019-02-10T17:30:18.702Z,323.40
2019-02-10T17:32:47.430Z,292.73
2019-02-10T17:35:16.363Z,249.93
2019-02-10T17:37:45.105Z,195.67
2019-02-10T17:40:19.739Z,154.70
2019-02-10T17:42:48.492Z,139.37
2019-02-10T17:45:17.219Z,140.70
2019-02-10T17:47:46.374Z,145.97
2019-02-10T17:50:15.113Z,178.63
2019-02-10T17:52:43.835Z,183.93
2019-02-10T17:55:12.605Z,162.27
2019-02-10T17:57:41.351Z,134.37
2019-02-10T18:00:19.199Z,123.83
2019-02-10T18:02:47.938Z,110.50
2019-02-10T18:05:16.688Z,108.23
2019-02-10T18:07:45.620Z,84.90
2019-02-10T18:10:15.471Z,77.33
2019-02-10T18:12:44.205Z,65.27
2019-02-10T18:15:14.587Z,53.97
2019-02-10T18:17:47.878Z,52.80
2019-02-10T18:20:34.378Z,57.20
2019-02-10T18:23:04.674Z,59.53
2019-02-10T18:25:47.402Z,60.33
2019-02-10T18:28:23.536Z,59.93
2019-02-10T18:30:54.013Z,64.23
2019-02-10T18:33:27.068Z,65.60
2019-02-10T18:36:13.683Z,71.57
2019-02-10T18:38:46.761Z,64.27
2019-02-10T18:41:23.469Z,63.07
2019-02-10T18:43:59.812Z,97.93
2019-02-10T18:46:48.838Z,95.47
2019-02-10T18:49:22.165Z,55.63
2019-02-10T18:51:52.462Z,40.33
2019-02-10T18:54:38.332Z,38.37
2019-02-10T18:57:08.626Z,39.30
2019-02-10T18:59:48.351Z,44.23
2019-02-10T19:02:27.929Z,46.07
2019-02-10T19:05:07.324Z,45.50
2019-02-10T19:07:40.455Z,45.57
2019-02-10T19:10:27.006Z,49.07
2019-02-10T19:13:13.510Z,52.23
2019-02-10T19:15:55.956Z,51.00
2019-02-10T19:18:29.025Z,51.17
2019-02-10T19:20:59.530Z,49.33
2019-02-10T19:23:29.824Z,47.40
2019-02-10T19:26:16.462Z,48.83
2019-02-10T19:28:46.786Z,53.37
2019-02-10T19:31:23.131Z,51.40
2019-02-10T19:33:53.450Z,47.93
2019-02-10T19:36:29.688Z,49.77
2019-02-10T19:39:08.978Z,46.40
2019-02-10T19:41:39.353Z,49.67
2019-02-10T19:44:15.466Z,47.80
2019-02-10T19:46:46.251Z,46.93
2019-02-10T19:49:16.594Z,46.03
2019-02-10T19:52:05.063Z,80.40
2019-02-10T19:54:41.169Z,105.63
2019-02-10T19:57:24.786Z,114.50
2019-02-10T19:59:55.165Z,82.60
2019-02-10T20:02:28.261Z,64.23
2019-02-10T20:05:04.737Z,73.80
2019-02-10T20:07:35.242Z,79.27
2019-02-10T20:10:05.882Z,78.37
2019-02-10T20:12:36.187Z,68.87
2019-02-10T20:15:08.870Z,64.50
2019-02-10T20:17:45.296Z,71.87
2019-02-10T20:20:15.859Z,62.53
2019-02-10T20:22:46.302Z,58.53
2019-02-10T20:25:19.639Z,58.77
2019-02-10T20:28:06.577Z,62.90
2019-02-10T20:30:47.821Z,46.17
2019-02-10T20:33:36.389Z,40.47
2019-02-10T20:36:15.675Z,45.40
2019-02-10T20:38:54.908Z,61.87
2019-02-10T20:41:39.389Z,72.87
2019-02-10T20:44:09.862Z,70.37
2019-02-10T20:46:56.199Z,52.63
2019-02-10T20:49:35.494Z,59.77
2019-02-10T20:52:05.780Z,45.10
2019-02-10T20:54:42.375Z,56.80
2019-02-10T20:57:13.682Z,54.97
2019-02-10T20:59:44.061Z,55.30
2019-02-10T21:02:24.038Z,129.63
2019-02-10T21:04:58.009Z,57.87
2019-02-10T21:07:28.352Z,108.13
2019-02-10T21:10:05.124Z,52.67
2019-02-10T21:12:38.542Z,90.73
2019-02-10T21:15:28.000Z,186.53
2019-02-10T21:18:14.397Z,112.00
2019-02-10T21:20:48.170Z,66.10
2019-02-10T21:23:18.464Z,83.37
2019-02-10T21:25:52.998Z,85.20
2019-02-10T21:28:23.793Z,70.57
2019-02-10T21:31:00.144Z,67.57
2019-02-10T21:33:43.439Z,73.53
2019-02-10T21:36:16.494Z,102.00
2019-02-10T21:38:52.818Z,110.37
2019-02-10T21:41:32.310Z,120.20
2019-02-10T21:46:56.217Z,119.27
2019-02-10T21:49:25.015Z,76.60
2019-02-10T21:51:53.740Z,81.80
2019-02-10T21:54:22.466Z,92.50
2019-02-10T21:56:51.269Z,80.17
2019-02-10T21:59:19.986Z,95.07
2019-02-10T22:01:48.732Z,83.93
2019-02-10T22:04:18.625Z,83.57
2019-02-10T22:06:47.331Z,86.70
2019-02-10T22:09:16.063Z,85.97
2019-02-10T22:11:44.936Z,84.23
2019-02-10T22:14:14.749Z,112.60
2019-02-10T22:16:43.474Z,120.50
2019-02-10T22:19:12.265Z,49.47
2019-02-10T22:21:40.983Z,42.93
2019-02-10T22:24:09.722Z,36.47
2019-02-10T22:26:38.513Z,38.20
2019-02-10T22:29:07.233Z,36.93
2019-02-10T22:31:36.097Z,37.57
2019-02-10T22:34:04.972Z,36.43
2019-02-10T22:36:34.605Z,138.33
2019-02-10T22:39:04.231Z,56.03
2019-02-10T22:41:33.123Z,78.87
2019-02-10T22:44:01.865Z,106.67
2019-02-10T22:46:30.593Z,81.53
2019-02-10T22:48:59.365Z,66.73
2019-02-10T22:51:28.092Z,55.93
2019-02-10T22:53:56.820Z,54.57
2019-02-10T22:56:25.714Z,64.00
2019-02-10T22:58:54.442Z,69.57
2019-02-10T23:01:23.266Z,64.30
2019-02-10T23:03:52.039Z,68.10
2019-02-10T23:06:20.783Z,67.37
2019-02-10T23:08:49.494Z,68.37
2019-02-10T23:11:18.374Z,60.63
2019-02-10T23:13:47.100Z,69.20
2019-02-10T23:16:15.824Z,65.03
2019-02-10T23:18:44.966Z,68.53
2019-02-10T23:21:13.723Z,71.70
2019-02-10T23:23:42.453Z,82.50
2019-02-10T23:26:11.364Z,92.03
2019-02-10T23:28:40.087Z,92.50
2019-02-10T23:31:08.813Z,93.70
2019-02-10T23:33:37.998Z,84.10
2019-02-10T23:36:06.727Z,75.37
2019-02-10T23:38:35.459Z,67.43
2019-02-10T23:41:04.424Z,60.63
2019-02-10T23:43:33.358Z,53.17
2019-02-10T23:46:02.090Z,51.43
2019-02-10T23:48:30.974Z,51.83
2019-02-10T23:50:59.694Z,50.63
2019-02-10T23:53:28.411Z,48.30
2019-02-10T23:55:57.619Z,49.57
2019-02-10T23:58:26.347Z,52.20
